Time;durP1;ratioP1;P1;durP2;ratioP2;P2;SDS_P1;SDS_P2;PMS_P1;PMS_P2;Temp;Humidity;BMP_temperature;BMP_pressure;BME280_temperature;BME280_humidity;BME280_pressure;Samples;Min_cycle;Max_cycle;Signal;HPM_P1;HPM_P2
2021/01/05 00:00:20;;;;;;;15.98;9.30;;;9.40;99.90;;;;;;4730790;30;20521;-75
2021/01/05 00:02:46;;;;;;;10.43;7.07;;;9.40;99.90;;;;;;4730040;30;20032;-77
2021/01/05 00:05:14;;;;;;;14.02;7.70;;;9.30;99.90;;;;;;4731246;30;20043;-77
2021/01/05 00:07:42;;;;;;;15.23;8.13;;;9.10;99.90;;;;;;4731710;30;20512;-77
2021/01/05 00:10:10;;;;;;;12.50;6.72;;;9.10;99.90;;;;;;4727414;30;20033;-77
2021/01/05 00:12:37;;;;;;;10.85;5.88;;;9.00;99.90;;;;;;4730858;30;20036;-76
2021/01/05 00:15:05;;;;;;;13.05;6.45;;;9.00;99.90;;;;;;4731589;30;20086;-77
2021/01/05 00:17:31;;;;;;;12.48;7.03;;;8.90;99.90;;;;;;4731615;30;20101;-77
2021/01/05 00:19:57;;;;;;;10.00;6.18;;;8.90;99.90;;;;;;4730028;30;20395;-77
2021/01/05 00:22:23;;;;;;;11.77;5.85;;;8.80;99.90;;;;;;4730728;30;20068;-77
2021/01/05 00:24:49;;;;;;;10.57;5.38;;;8.80;99.90;;;;;;4727515;30;20045;-77
2021/01/05 00:27:16;;;;;;;10.88;5.13;;;8.60;99.90;;;;;;4731912;30;20025;-77
2021/01/05 00:29:42;;;;;;;10.05;5.28;;;8.50;99.90;;;;;;4742929;30;20394;-77
2021/01/05 00:32:16;;;;;;;8.27;5.40;;;8.40;99.90;;;;;;4750484;30;20039;-78
2021/01/05 00:34:44;;;;;;;7.53;5.68;;;8.30;99.90;;;;;;4736018;30;20446;-77
2021/01/05 00:37:14;;;;;;;7.97;5.28;;;8.20;99.90;;;;;;4732881;30;20039;-77
2021/01/05 00:39:42;;;;;;;10.43;4.70;;;8.30;99.90;;;;;;4740099;30;20040;-77
2021/01/05 00:42:08;;;;;;;9.18;4.18;;;8.30;99.90;;;;;;4750443;30;20037;-78
2021/01/05 00:44:35;;;;;;;13.18;5.45;;;8.30;99.90;;;;;;4740443;30;20037;-78
2021/01/05 00:47:01;;;;;;;9.65;4.50;;;8.40;99.90;;;;;;4732661;30;20375;-77
2021/01/05 00:49:27;;;;;;;8.95;4.63;;;8.40;99.90;;;;;;4734607;30;20527;-77
2021/01/05 00:51:58;;;;;;;7.90;4.05;;;8.50;99.90;;;;;;4742353;30;20486;-77
2021/01/05 00:54:25;;;;;;;8.05;3.63;;;8.50;99.90;;;;;;4742672;30;20037;-78
2021/01/05 00:57:04;;;;;;;6.80;3.95;;;8.50;99.90;;;;;;4731195;30;20051;-77
2021/01/05 00:59:32;;;;;;;6.35;3.42;;;8.40;99.90;;;;;;4732196;30;20060;-77
2021/01/05 01:01:59;;;;;;;4.55;2.78;;;8.40;99.90;;;;;;4735129;30;20097;-78
2021/01/05 01:04:27;;;;;;;4.60;2.95;;;8.40;99.90;;;;;;4745264;30;20079;-77
2021/01/05 01:06:54;;;;;;;4.75;2.25;;;8.30;99.90;;;;;;4731183;30;20045;-78
2021/01/05 01:09:20;;;;;;;3.88;2.08;;;8.30;99.90;;;;;;4731099;30;20183;-76
2021/01/05 01:12:01;;;;;;;3.50;2.33;;;8.20;99.90;;;;;;4747264;30;20040;-77
2021/01/05 01:14:29;;;;;;;3.08;2.20;;;8.10;99.90;;;;;;4747224;30;20059;-77
2021/01/05 01:16:55;;;;;;;4.55;2.10;;;8.10;99.90;;;;;;4716362;30;20602;-76
2021/01/05 01:19:22;;;;;;;3.85;1.75;;;8.20;99.90;;;;;;4730931;30;20829;-77
2021/01/05 01:21:50;;;;;;;4.78;1.77;;;8.20;99.90;;;;;;4731681;30;20048;-77
2021/01/05 01:24:19;;;;;;;4.10;1.90;;;8.30;99.90;;;;;;4745948;30;20514;-77
2021/01/05 01:26:46;;;;;;;3.42;1.92;;;8.40;99.90;;;;;;4721208;30;20076;-77
2021/01/05 01:29:26;;;;;;;3.10;1.50;;;8.50;99.90;;;;;;4713551;30;20041;-77
2021/01/05 01:31:55;;;;;;;1.70;1.42;;;8.60;99.90;;;;;;4736871;30;20040;-77
2021/01/05 01:34:25;;;;;;;4.07;2.03;;;8.60;99.90;;;;;;4748152;30;20123;-77
2021/01/05 01:36:59;;;;;;;3.80;1.50;;;8.60;99.90;;;;;;4734309;30;20044;-77
2021/01/05 01:39:27;;;;;;;3.85;1.48;;;8.70;99.90;;;;;;4730783;30;20041;-77
2021/01/05 01:41:54;;;;;;;2.65;1.73;;;8.70;99.90;;;;;;4737445;30;20033;-77
2021/01/05 01:44:25;;;;;;;4.65;1.50;;;8.80;99.90;;;;;;4728233;30;20029;-77
2021/01/05 01:46:56;;;;;;;4.68;1.70;;;8.70;99.90;;;;;;4731721;30;20048;-77
2021/01/05 01:49:22;;;;;;;2.30;1.77;;;8.70;99.90;;;;;;4731734;30;20032;-77
2021/01/05 01:51:51;;;;;;;2.97;1.40;;;8.60;99.90;;;;;;4736740;30;20312;-77
2021/01/05 01:54:49;;;;;;;2.35;1.50;;;8.60;99.90;;;;;;4733257;30;20040;-77
2021/01/05 01:57:40;;;;;;;4.40;1.83;;;8.70;99.90;;;;;;4731706;30;20094;-77
2021/01/05 02:00:14;;;;;;;2.72;1.63;;;8.60;99.90;;;;;;4730560;30;20499;-77
2021/01/05 02:02:53;;;;;;;7.32;2.70;;;8.70;99.90;;;;;;4740925;30;20059;-77
2021/01/05 02:05:36;;;;;;;4.63;2.15;;;8.80;99.90;;;;;;4713804;30;20045;-76
2021/01/05 02:08:18;;;;;;;2.65;1.60;;;8.80;99.90;;;;;;4713139;30;20053;-76
2021/01/05 02:10:56;;;;;;;2.08;1.42;;;8.90;99.90;;;;;;4713024;30;20041;-77
2021/01/05 02:13:59;;;;;;;2.00;1.20;;;8.90;99.90;;;;;;4735592;30;20032;-77
2021/01/05 02:16:56;;;;;;;3.85;1.75;;;9.00;99.90;;;;;;4731380;30;20542;-77
2021/01/05 02:19:31;;;;;;;1.80;1.48;;;9.00;99.90;;;;;;4703677;30;20071;-77
2021/01/05 02:22:21;;;;;;;3.10;1.48;;;9.00;99.90;;;;;;4712908;30;20045;-77
2021/01/05 02:25:06;;;;;;;3.40;1.58;;;9.00;99.90;;;;;;4729348;30;20068;-77
2021/01/05 02:27:42;;;;;;;2.50;1.25;;;8.90;99.90;;;;;;4730853;30;20425;-78
2021/01/05 02:30:12;;;;;;;2.85;1.50;;;8.90;99.90;;;;;;4729685;30;20064;-77
2021/01/05 02:32:51;;;;;;;2.95;1.33;;;8.80;99.90;;;;;;4734557;30;20068;-76
2021/01/05 02:35:42;;;;;;;2.20;1.73;;;8.70;99.90;;;;;;4739795;30;20476;-77
2021/01/05 02:38:59;;;;;;;2.28;1.40;;;8.70;99.90;;;;;;4735336;30;20476;-78
2021/01/05 02:42:08;;;;;;;5.57;2.22;;;8.70;99.90;;;;;;4734777;30;20071;-77
2021/01/05 02:45:20;;;;;;;3.58;1.85;;;8.60;99.90;;;;;;4745232;30;20052;-76
2021/01/05 02:48:22;;;;;;;5.53;1.95;;;8.70;99.90;;;;;;4730176;30;20080;-76
2021/01/05 02:51:34;;;;;;;2.90;1.60;;;8.70;99.90;;;;;;4734559;30;20043;-77
2021/01/05 02:54:39;;;;;;;2.45;1.88;;;8.70;99.90;;;;;;4742844;30;20039;-77
2021/01/05 02:57:51;;;;;;;4.38;1.98;;;8.60;99.90;;;;;;4716880;30;20431;-77
2021/01/05 03:01:03;;;;;;;3.10;1.33;;;8.50;99.90;;;;;;4716562;30;20045;-76
2021/01/05 03:03:48;;;;;;;2.78;1.67;;;8.40;99.90;;;;;;4724553;30;21453;-77
2021/01/05 03:06:52;;;;;;;5.13;1.63;;;8.30;99.90;;;;;;4738624;30;20136;-77
2021/01/05 03:09:40;;;;;;;;;;;8.30;99.90;;;;;;4735176;30;20399;-77
2021/01/05 03:12:40;;;;;;;2.28;1.60;;;8.20;99.90;;;;;;4734467;30;20380;-77
2021/01/05 03:15:30;;;;;;;2.88;2.00;;;8.20;99.90;;;;;;4744039;30;20464;-76
2021/01/05 03:18:19;;;;;;;3.53;2.10;;;8.20;99.90;;;;;;4734527;30;20040;-76
2021/01/05 03:21:08;;;;;;;3.28;1.98;;;8.10;99.90;;;;;;4734077;30;20414;-77
2021/01/05 03:23:54;;;;;;;2.72;1.45;;;8.20;99.90;;;;;;4734450;30;20051;-77
2021/01/05 03:26:51;;;;;;;1.80;1.30;;;8.20;99.90;;;;;;4729792;30;20418;-76
2021/01/05 03:29:35;;;;;;;2.40;1.60;;;8.30;99.90;;;;;;4716684;30;20129;-76
2021/01/05 03:32:20;;;;;;;7.20;2.15;;;8.30;99.90;;;;;;4716473;30;20084;-77
2021/01/05 03:35:05;;;;;;;3.10;1.60;;;8.20;99.90;;;;;;4724970;30;20090;-77
2021/01/05 03:37:49;;;;;;;2.47;1.80;;;8.10;99.90;;;;;;4737757;30;20059;-77
2021/01/05 03:40:34;;;;;;;2.05;1.70;;;8.00;99.90;;;;;;4734140;30;20379;-77
2021/01/05 03:43:19;;;;;;;3.10;1.70;;;7.90;99.90;;;;;;4733466;30;20116;-77
2021/01/05 03:46:03;;;;;;;4.47;1.98;;;7.90;99.90;;;;;;4742586;30;20569;-77
2021/01/05 03:48:48;;;;;;;7.43;1.70;;;7.90;99.90;;;;;;4716695;30;20075;-78
2021/01/05 03:51:34;;;;;;;4.55;1.80;;;7.90;99.90;;;;;;4716330;30;20103;-77
2021/01/05 03:54:18;;;;;;;4.85;1.60;;;8.00;99.90;;;;;;4715961;30;20407;-77
2021/01/05 03:57:04;;;;;;;4.15;1.98;;;7.90;99.90;;;;;;4740691;30;20567;-76
2021/01/05 03:59:48;;;;;;;2.90;1.52;;;7.90;99.90;;;;;;4732375;30;20113;-77
2021/01/05 04:02:33;;;;;;;4.72;2.22;;;7.80;99.90;;;;;;4732228;30;20056;-77
2021/01/05 04:04:59;;;;;;;4.97;2.60;;;7.80;99.90;;;;;;4733635;30;20089;-77
2021/01/05 04:07:26;;;;;;;3.78;2.08;;;7.80;99.90;;;;;;4743560;30;20051;-77
2021/01/05 04:09:52;;;;;;;3.25;2.08;;;7.80;99.90;;;;;;4733167;30;20025;-77
2021/01/05 04:12:18;;;;;;;3.05;1.63;;;7.90;99.90;;;;;;4733351;30;20071;-77
2021/01/05 04:14:44;;;;;;;3.38;2.20;;;7.90;99.90;;;;;;4732032;30;20404;-77
2021/01/05 04:17:10;;;;;;;4.38;1.90;;;8.00;99.90;;;;;;4742636;30;20511;-77
2021/01/05 04:19:37;;;;;;;4.25;1.90;;;8.00;99.90;;;;;;4720374;30;20033;-77
2021/01/05 04:22:03;;;;;;;4.10;2.20;;;8.00;99.90;;;;;;4715599;30;20048;-77
2021/01/05 04:24:29;;;;;;;3.92;2.00;;;8.00;99.90;;;;;;4716023;30;20025;-77
2021/01/05 04:26:55;;;;;;;3.72;2.00;;;8.00;99.90;;;;;;4737076;30;20033;-77
2021/01/05 04:29:21;;;;;;;3.15;2.17;;;7.90;99.90;;;;;;4739968;30;20028;-77
2021/01/05 04:31:47;;;;;;;3.88;1.98;;;8.00;99.90;;;;;;4731926;30;20039;-78
2021/01/05 04:34:15;;;;;;;4.60;2.78;;;7.90;99.90;;;;;;4732787;30;20078;-77
2021/01/05 04:36:41;;;;;;;3.83;2.63;;;8.00;99.90;;;;;;4721906;30;20130;-77
2021/01/05 04:39:09;;;;;;;4.60;2.22;;;8.00;99.90;;;;;;4750094;30;20024;-77
2021/01/05 04:41:50;;;;;;;4.68;2.10;;;8.00;99.90;;;;;;4750433;30;20055;-78
2021/01/05 04:44:17;;;;;;;5.35;2.88;;;8.00;99.90;;;;;;4750403;30;20031;-77
2021/01/05 04:46:56;;;;;;;3.75;2.40;;;8.00;99.90;;;;;;4736269;30;20041;-78
2021/01/05 04:49:25;;;;;;;6.82;2.33;;;8.00;99.90;;;;;;4731672;30;20823;-78
2021/01/05 04:52:07;;;;;;;5.00;2.13;;;8.00;99.90;;;;;;4732758;30;20036;-77
2021/01/05 04:54:43;;;;;;;4.00;2.25;;;7.90;99.90;;;;;;4732243;30;20041;-77
2021/01/05 04:57:19;;;;;;;5.43;2.20;;;7.90;99.90;;;;;;4721095;30;20063;-78
2021/01/05 04:59:53;;;;;;;5.45;2.22;;;7.90;99.90;;;;;;4731459;30;20061;-77
2021/01/05 05:02:31;;;;;;;4.55;2.33;;;7.90;99.90;;;;;;4731313;30;20047;-77
2021/01/05 05:05:28;;;;;;;5.75;2.40;;;7.80;99.90;;;;;;4732527;30;20550;-77
2021/01/05 05:08:17;;;;;;;4.25;2.38;;;7.80;99.90;;;;;;4734485;30;20064;-77
2021/01/05 05:10:56;;;;;;;4.43;2.22;;;7.80;99.90;;;;;;4749871;30;20216;-78
2021/01/05 05:13:51;;;;;;;3.53;2.53;;;7.80;99.90;;;;;;4749796;30;20605;-78
2021/01/05 05:16:31;;;;;;;4.55;2.50;;;7.80;99.90;;;;;;4747458;30;20047;-78
2021/01/05 05:19:35;;;;;;;4.22;2.40;;;7.80;99.90;;;;;;4739879;30;20111;-78
2021/01/05 05:22:01;;;;;;;3.78;2.63;;;7.80;99.90;;;;;;4749869;30;20037;-78
2021/01/05 05:24:48;;;;;;;5.40;2.92;;;7.80;99.90;;;;;;4749720;30;20032;-78
2021/01/05 05:27:28;;;;;;;4.25;2.35;;;7.80;99.90;;;;;;4738522;30;20096;-79
2021/01/05 05:30:19;;;;;;;8.30;2.83;;;7.80;99.90;;;;;;4739200;30;20086;-78
2021/01/05 05:32:45;;;;;;;5.95;2.67;;;7.80;99.90;;;;;;4749556;30;20032;-78
2021/01/05 05:35:14;;;;;;;4.13;2.92;;;7.80;99.90;;;;;;4749442;30;20044;-78
2021/01/05 05:37:49;;;;;;;6.35;3.03;;;7.80;99.90;;;;;;4736864;30;20033;-78
2021/01/05 05:40:27;;;;;;;4.15;3.38;;;7.80;99.90;;;;;;4738918;30;20039;-78
2021/01/05 05:43:16;;;;;;;6.22;3.13;;;7.80;99.90;;;;;;4749654;30;20032;-79
2021/01/05 05:45:44;;;;;;;10.55;3.45;;;7.70;99.90;;;;;;4749229;30;20033;-79
2021/01/05 05:48:25;;;;;;;6.45;3.58;;;7.70;99.90;;;;;;4733897;30;20033;-78
2021/01/05 05:51:09;;;;;;;4.45;3.13;;;7.70;99.90;;;;;;4742244;30;20032;-79
2021/01/05 05:53:43;;;;;;;7.05;3.50;;;7.70;99.90;;;;;;4749350;30;20024;-79
2021/01/05 05:56:18;;;;;;;4.63;3.08;;;7.60;99.90;;;;;;4749140;30;20518;-78
2021/01/05 05:58:52;;;;;;;7.35;3.55;;;7.60;99.90;;;;;;4732501;30;20041;-79
2021/01/05 06:01:39;;;;;;;6.03;3.70;;;7.60;99.90;;;;;;4740413;30;20122;-79
2021/01/05 06:04:07;;;;;;;5.00;3.38;;;7.60;99.90;;;;;;4713001;30;20033;-79
2021/01/05 06:06:35;;;;;;;7.55;3.65;;;7.70;99.90;;;;;;4714048;30;20095;-79
2021/01/05 06:09:02;;;;;;;6.63;3.67;;;7.70;99.90;;;;;;4714133;30;20152;-78
2021/01/05 06:11:28;;;;;;;5.18;3.10;;;7.60;99.90;;;;;;4740407;30;20043;-78
2021/01/05 06:13:54;;;;;;;6.70;3.22;;;7.60;99.90;;;;;;4731582;30;20036;-79
2021/01/05 06:16:20;;;;;;;8.05;3.60;;;7.60;99.90;;;;;;4728721;30;20091;-79
2021/01/05 06:18:46;;;;;;;5.03;3.30;;;7.60;99.90;;;;;;4714411;30;20029;-78
2021/01/05 06:21:12;;;;;;;8.57;3.45;;;7.60;99.90;;;;;;4731867;30;20378;-78
2021/01/05 06:23:38;;;;;;;10.65;3.97;;;7.50;99.90;;;;;;4733678;30;20047;-78
2021/01/05 06:26:04;;;;;;;8.20;4.53;;;7.60;99.90;;;;;;4730477;30;20528;-78
2021/01/05 06:28:30;;;;;;;8.00;3.40;;;7.70;99.90;;;;;;4731663;30;20041;-78
2021/01/05 06:30:56;;;;;;;4.68;3.05;;;7.70;99.90;;;;;;4728667;30;20032;-78
2021/01/05 06:33:22;;;;;;;7.13;3.80;;;7.70;99.90;;;;;;4731723;30;20036;-78
2021/01/05 06:35:48;;;;;;;6.70;3.85;;;7.80;99.90;;;;;;4713882;30;20205;-79
2021/01/05 06:38:14;;;;;;;6.40;3.50;;;7.80;99.90;;;;;;4713863;30;20041;-78
2021/01/05 06:40:40;;;;;;;6.60;3.15;;;7.90;99.90;;;;;;4714317;30;20036;-78
2021/01/05 06:43:06;;;;;;;4.15;2.88;;;7.90;99.90;;;;;;4743835;30;20036;-78
2021/01/05 06:45:33;;;;;;;6.93;3.10;;;7.90;99.90;;;;;;4731483;30;20040;-78
2021/01/05 06:48:00;;;;;;;7.60;3.00;;;7.90;99.90;;;;;;4731279;30;20098;-78
2021/01/05 06:50:29;;;;;;;5.28;2.72;;;7.90;99.90;;;;;;4731459;30;20039;-78
2021/01/05 06:52:56;;;;;;;4.63;2.78;;;8.00;99.90;;;;;;4744078;30;20035;-79
2021/01/05 06:55:23;;;;;;;2.90;2.42;;;8.00;99.90;;;;;;4714612;30;20052;-79
2021/01/05 06:57:49;;;;;;;9.05;2.42;;;8.10;99.90;;;;;;4713852;30;20038;-79
2021/01/05 07:00:24;;;;;;;3.50;2.40;;;8.10;99.90;;;;;;4713808;30;20045;-79
2021/01/05 07:02:50;;;;;;;2.70;2.25;;;8.10;99.90;;;;;;4733657;30;20040;-79
2021/01/05 07:05:18;;;;;;;6.15;2.45;;;8.10;99.90;;;;;;4734342;30;20033;-79
2021/01/05 07:07:44;;;;;;;4.28;2.55;;;8.20;99.90;;;;;;4731112;30;20064;-79
2021/01/05 07:10:12;;;;;;;7.07;2.05;;;8.20;99.90;;;;;;4729865;30;20044;-80
2021/01/05 07:12:39;;;;;;;4.75;2.00;;;8.20;99.90;;;;;;4733932;30;20117;-80
2021/01/05 07:15:07;;;;;;;4.85;2.03;;;8.30;99.90;;;;;;4728100;30;20037;-79
2021/01/05 07:17:33;;;;;;;8.13;2.13;;;8.40;99.90;;;;;;4713924;30;20399;-79
2021/01/05 07:19:59;;;;;;;3.88;2.15;;;8.40;99.90;;;;;;4714981;30;21233;-79
2021/01/05 07:22:26;;;;;;;3.53;2.08;;;8.50;99.90;;;;;;4723221;30;20505;-80
2021/01/05 07:24:53;;;;;;;4.25;2.08;;;8.50;99.90;;;;;;4735408;30;20048;-79
2021/01/05 07:27:19;;;;;;;2.88;1.70;;;8.60;99.90;;;;;;4730769;30;20086;-79
2021/01/05 07:29:45;;;;;;;2.60;1.58;;;8.70;99.90;;;;;;4732431;30;20131;-78
2021/01/05 07:32:11;;;;;;;3.45;1.98;;;8.80;99.90;;;;;;4731456;30;20029;-78
2021/01/05 07:34:37;;;;;;;4.45;2.42;;;8.80;99.90;;;;;;4730277;30;20040;-78
2021/01/05 07:37:09;;;;;;;5.18;2.38;;;8.90;99.90;;;;;;4732593;30;20047;-78
2021/01/05 07:39:35;;;;;;;6.35;2.40;;;8.90;99.90;;;;;;4731619;30;20033;-78
2021/01/05 07:42:12;;;;;;;7.68;3.05;;;9.00;99.90;;;;;;4731132;30;20037;-78
2021/01/05 07:44:39;;;;;;;3.83;2.10;;;9.10;99.90;;;;;;4731302;30;20398;-78
2021/01/05 07:47:06;;;;;;;4.82;2.30;;;9.20;99.90;;;;;;4732357;30;20032;-78
2021/01/05 07:49:33;;;;;;;4.47;2.55;;;9.20;99.90;;;;;;4732351;30;20091;-78
2021/01/05 07:51:59;;;;;;;6.10;2.97;;;9.20;99.90;;;;;;4732190;30;20048;-78
2021/01/05 07:54:25;;;;;;;6.03;2.60;;;9.30;99.90;;;;;;4731894;30;20056;-78
2021/01/05 07:56:51;;;;;;;4.30;2.50;;;9.40;99.90;;;;;;4732331;30;20060;-79
2021/01/05 07:59:18;;;;;;;5.30;2.42;;;9.40;99.90;;;;;;4729981;30;20087;-78
2021/01/05 08:01:46;;;;;;;6.07;2.47;;;9.50;99.90;;;;;;4732414;30;20463;-78
2021/01/05 08:04:12;;;;;;;4.72;2.90;;;9.60;99.90;;;;;;4730474;30;20039;-78
2021/01/05 08:06:42;;;;;;;8.43;4.22;;;9.70;99.90;;;;;;4730664;30;20033;-79
2021/01/05 08:09:09;;;;;;;13.50;6.40;;;9.80;99.90;;;;;;4729773;30;20048;-79
2021/01/05 08:11:39;;;;;;;9.68;6.40;;;9.90;99.90;;;;;;4731846;30;20033;-79
2021/01/05 08:14:06;;;;;;;12.55;6.03;;;10.00;99.90;;;;;;4729245;30;20025;-79
2021/01/05 08:16:33;;;;;;;8.13;4.85;;;10.10;99.90;;;;;;4735517;30;20093;-80
2021/01/05 08:18:59;;;;;;;11.95;5.70;;;10.20;99.90;;;;;;4732004;30;20076;-79
2021/01/05 08:21:26;;;;;;;8.93;5.13;;;10.30;99.90;;;;;;4731614;30;20518;-79
2021/01/05 08:23:53;;;;;;;10.73;4.18;;;10.40;99.90;;;;;;4728595;30;20422;-79
2021/01/05 08:26:19;;;;;;;5.55;2.70;;;10.50;99.90;;;;;;4733621;30;20039;-80
2021/01/05 08:28:46;;;;;;;5.45;2.70;;;10.60;99.90;;;;;;4724643;30;20158;-79
2021/01/05 08:31:13;;;;;;;7.82;3.25;;;10.70;99.90;;;;;;4729798;30;20082;-80
2021/01/05 08:33:40;;;;;;;5.28;3.33;;;10.80;99.90;;;;;;4728495;30;20040;-79
2021/01/05 08:36:07;;;;;;;6.55;3.58;;;10.90;99.90;;;;;;4734385;30;20411;-79
2021/01/05 08:38:34;;;;;;;5.80;2.72;;;10.90;99.90;;;;;;4730055;30;20066;-79
2021/01/05 08:41:00;;;;;;;7.40;3.15;;;11.00;99.90;;;;;;4730645;30;20080;-79
2021/01/05 08:43:26;;;;;;;8.63;3.30;;;11.10;99.90;;;;;;4731764;30;20151;-79
2021/01/05 08:45:53;;;;;;;5.65;2.50;;;11.10;99.90;;;;;;4729725;30;20557;-78
2021/01/05 08:48:20;;;;;;;4.68;2.85;;;11.30;99.90;;;;;;4730456;30;20372;-79
2021/01/05 08:51:11;;;;;;;6.18;2.30;;;11.40;99.90;;;;;;4728074;30;20036;-78
2021/01/05 08:53:37;;;;;;;5.00;2.70;;;11.50;99.90;;;;;;4730325;30;20033;-79
2021/01/05 08:56:04;;;;;;;4.75;2.40;;;11.60;99.90;;;;;;4729804;30;20056;-79
2021/01/05 08:58:30;;;;;;;9.45;2.95;;;11.70;99.90;;;;;;4730604;30;20494;-79
2021/01/05 09:00:56;;;;;;;6.05;2.60;;;11.80;99.90;;;;;;4730965;30;20033;-79
2021/01/05 09:03:22;;;;;;;10.43;2.63;;;11.80;99.90;;;;;;4730731;30;20032;-79
2021/01/05 09:05:48;;;;;;;5.72;2.17;;;11.90;99.90;;;;;;4730939;30;20041;-79
2021/01/05 09:08:14;;;;;;;4.85;1.75;;;12.00;99.90;;;;;;4730402;30;20107;-79
2021/01/05 09:10:41;;;;;;;4.10;1.92;;;12.00;99.90;;;;;;4731096;30;20512;-78
2021/01/05 09:13:07;;;;;;;3.83;2.28;;;12.10;99.90;;;;;;4730961;30;20028;-78
2021/01/05 09:15:34;;;;;;;4.22;1.80;;;12.20;99.90;;;;;;4730324;30;20190;-79
2021/01/05 09:18:02;;;;;;;7.07;2.22;;;12.30;99.90;;;;;;4729483;30;20123;-79
2021/01/05 09:20:28;;;;;;;4.55;2.97;;;12.40;99.90;;;;;;4730381;30;20032;-78
2021/01/05 09:22:55;;;;;;;4.18;2.10;;;12.50;99.90;;;;;;4730429;30;20568;-78
2021/01/05 09:25:22;;;;;;;6.78;2.17;;;12.50;99.90;;;;;;4730526;30;20117;-76
2021/01/05 09:27:51;;;;;;;4.00;2.05;;;12.60;99.90;;;;;;4728781;30;20110;-80
2021/01/05 09:30:18;;;;;;;5.40;1.60;;;12.70;99.90;;;;;;4727144;30;20032;-79
2021/01/05 09:32:46;;;;;;;6.40;2.38;;;12.80;99.90;;;;;;4727934;30;20085;-80
2021/01/05 09:35:12;;;;;;;4.82;1.85;;;12.90;99.90;;;;;;4729755;30;20033;-77
2021/01/05 09:37:47;;;;;;;7.20;1.48;;;13.00;99.90;;;;;;4724004;30;20060;-78
2021/01/05 09:40:15;;;;;;;1.85;1.00;;;13.10;99.90;;;;;;4727266;30;20036;-79
2021/01/05 09:42:42;;;;;;;2.28;1.40;;;13.10;99.90;;;;;;4729928;30;20025;-79
2021/01/05 09:45:09;;;;;;;7.88;1.60;;;13.30;99.90;;;;;;4729749;30;20032;-79
2021/01/05 09:47:35;;;;;;;2.47;1.70;;;13.50;99.90;;;;;;4728476;30;20042;-80
2021/01/05 09:50:02;;;;;;;1.77;1.13;;;13.60;99.90;;;;;;4730076;30;20045;-78
2021/01/05 09:52:32;;;;;;;2.75;1.38;;;13.80;99.90;;;;;;4729179;30;20033;-80
2021/01/05 09:54:58;;;;;;;6.00;1.52;;;13.90;99.90;;;;;;4730608;30;20048;-79
2021/01/05 09:57:25;;;;;;;2.13;1.25;;;13.90;99.90;;;;;;4728360;30;20487;-80
2021/01/05 09:59:51;;;;;;;4.35;1.00;;;13.90;99.90;;;;;;4728912;30;20110;-79
2021/01/05 10:02:17;;;;;;;3.83;1.13;;;13.70;99.90;;;;;;4727227;30;20024;-79
2021/01/05 10:04:43;;;;;;;2.45;1.00;;;13.90;99.90;;;;;;4724745;30;20370;-80
2021/01/05 10:07:09;;;;;;;1.15;0.98;;;14.10;99.90;;;;;;4727951;30;20043;-78
2021/01/05 10:09:36;;;;;;;3.10;0.82;;;14.10;99.90;;;;;;4735212;30;20048;-79
2021/01/05 10:12:04;;;;;;;0.98;0.50;;;14.10;99.90;;;;;;4730333;30;20114;-79
2021/01/05 10:14:30;;;;;;;0.63;0.50;;;14.20;99.90;;;;;;4730161;30;20029;-79
2021/01/05 10:16:57;;;;;;;8.32;0.50;;;14.40;99.90;;;;;;4728643;30;20061;-79
2021/01/05 10:19:24;;;;;;;1.52;0.52;;;14.50;99.90;;;;;;4729438;30;20043;-79
2021/01/05 10:21:51;;;;;;;0.77;0.32;;;14.40;99.90;;;;;;4729112;30;20123;-79
2021/01/05 10:24:18;;;;;;;0.73;0.22;;;14.10;99.90;;;;;;4726529;30;20086;-78
2021/01/05 10:26:53;;;;;;;1.95;0.82;;;13.60;99.90;;;;;;4723893;30;20040;-79
2021/01/05 10:29:20;;;;;;;1.95;0.30;;;13.40;99.90;;;;;;4725177;30;20028;-78
2021/01/05 10:31:47;;;;;;;1.08;0.38;;;13.50;99.90;;;;;;4725658;30;20065;-78
2021/01/05 10:34:19;;;;;;;3.00;0.50;;;13.80;99.90;;;;;;4726623;30;20064;-78
2021/01/05 10:36:51;;;;;;;0.93;0.50;;;14.20;99.90;;;;;;4727655;30;20040;-78
2021/01/05 10:39:17;;;;;;;0.60;0.40;;;14.50;99.90;;;;;;4729180;30;21453;-78
2021/01/05 10:41:45;;;;;;;0.93;0.73;;;14.60;99.60;;;;;;4726405;30;20041;-78
2021/01/05 10:44:15;;;;;;;3.78;1.13;;;14.70;99.90;;;;;;4731710;30;20036;-78
2021/01/05 10:46:42;;;;;;;2.40;0.70;;;15.10;99.80;;;;;;4735107;30;20029;-79
2021/01/05 10:49:09;;;;;;;1.92;0.40;;;15.10;98.90;;;;;;4728503;30;20043;-78
2021/01/05 10:51:42;;;;;;;0.75;0.30;;;15.30;98.60;;;;;;4729142;30;20051;-79
2021/01/05 10:54:09;;;;;;;1.25;0.80;;;15.40;97.80;;;;;;4731061;30;20068;-78
2021/01/05 10:56:35;;;;;;;1.38;0.85;;;15.70;98.00;;;;;;4731874;30;20044;-78
2021/01/05 10:59:02;;;;;;;3.95;2.05;;;15.60;97.60;;;;;;4730358;30;20141;-78
2021/01/05 11:01:28;;;;;;;11.77;4.88;;;15.50;97.20;;;;;;4733184;30;20045;-78
2021/01/05 11:03:55;;;;;;;36.95;16.02;;;15.50;97.40;;;;;;4733411;30;20041;-80
2021/01/05 11:06:21;;;;;;;7.72;3.35;;;15.60;97.70;;;;;;4732960;30;20067;-79
2021/01/05 11:08:47;;;;;;;2.92;1.23;;;15.50;97.50;;;;;;4733215;30;20037;-79
2021/01/05 11:11:19;;;;;;;3.20;1.30;;;15.60;98.10;;;;;;4729644;30;20044;-79
2021/01/05 11:13:46;;;;;;;5.70;2.30;;;15.70;97.50;;;;;;4727136;30;20522;-79
2021/01/05 11:16:13;;;;;;;5.40;2.35;;;15.60;98.10;;;;;;4739343;30;20040;-79
2021/01/05 11:18:43;;;;;;;0.93;0.60;;;15.50;98.60;;;;;;4731357;30;20050;-79
2021/01/05 11:21:12;;;;;;;1.17;0.60;;;15.50;98.70;;;;;;4730917;30;20255;-79
2021/01/05 11:23:39;;;;;;;2.22;1.40;;;15.20;99.40;;;;;;4732790;30;20498;-79
2021/01/05 11:26:10;;;;;;;0.88;0.75;;;15.10;99.80;;;;;;4732268;30;20051;-78
2021/01/05 11:28:36;;;;;;;3.47;0.65;;;15.30;99.90;;;;;;4734209;30;20505;-79
2021/01/05 11:31:04;;;;;;;1.90;1.02;;;15.70;99.90;;;;;;4729885;30;20499;-78
2021/01/05 11:33:31;;;;;;;6.63;2.10;;;15.90;98.80;;;;;;4730451;30;20032;-79
2021/01/05 11:35:57;;;;;;;2.45;1.02;;;16.00;97.90;;;;;;4715189;30;20049;-79
2021/01/05 11:38:23;;;;;;;3.05;0.63;;;15.90;98.20;;;;;;4732900;30;20039;-79
2021/01/05 11:40:50;;;;;;;0.77;0.60;;;15.90;98.60;;;;;;4729898;30;20063;-78
2021/01/05 11:43:16;;;;;;;1.67;1.00;;;15.40;98.80;;;;;;4724578;30;20075;-79
2021/01/05 11:45:42;;;;;;;3.15;1.15;;;15.30;99.20;;;;;;4730824;30;20041;-78
2021/01/05 11:48:08;;;;;;;1.00;0.65;;;15.40;99.50;;;;;;4713871;30;20108;-79
2021/01/05 11:50:35;;;;;;;1.05;0.50;;;15.60;98.00;;;;;;4729076;30;20087;-78
2021/01/05 11:53:01;;;;;;;1.52;0.80;;;15.80;97.90;;;;;;4726369;30;20032;-79
2021/01/05 11:55:27;;;;;;;7.18;0.77;;;15.70;98.40;;;;;;4730004;30;20536;-79
2021/01/05 11:57:53;;;;;;;2.20;0.70;;;16.00;98.40;;;;;;4730945;30;20053;-79
2021/01/05 12:00:20;;;;;;;1.45;0.70;;;16.20;97.90;;;;;;4730127;30;20042;-77
2021/01/05 12:02:47;;;;;;;3.25;0.70;;;16.30;98.00;;;;;;4731515;30;20032;-78
2021/01/05 12:05:14;;;;;;;2.92;0.70;;;16.40;97.30;;;;;;4731215;30;20052;-78
2021/01/05 12:07:41;;;;;;;6.03;0.60;;;16.40;96.70;;;;;;4731455;30;20741;-81
2021/01/05 12:10:09;;;;;;;5.68;0.60;;;16.30;96.90;;;;;;4729840;30;21313;-79
2021/01/05 12:12:35;;;;;;;1.63;1.10;;;16.40;97.30;;;;;;4734456;30;20524;-78
2021/01/05 12:15:04;;;;;;;9.93;5.32;;;16.30;97.20;;;;;;4732591;30;20048;-79
2021/01/05 12:17:35;;;;;;;23.90;12.52;;;15.90;97.20;;;;;;4734108;30;20048;-79
2021/01/05 12:20:01;;;;;;;22.70;15.63;;;15.40;97.80;;;;;;4730238;30;20029;-78
2021/01/05 12:22:29;;;;;;;13.50;9.27;;;15.40;98.40;;;;;;4728470;30;20055;-78
2021/01/05 12:24:55;;;;;;;16.52;9.95;;;15.50;98.10;;;;;;4726781;30;20176;-78
2021/01/05 12:27:21;;;;;;;26.80;12.52;;;15.40;98.20;;;;;;4729230;30;20072;-78
2021/01/05 12:29:47;;;;;;;10.65;3.70;;;15.20;98.50;;;;;;4728256;30;20036;-78
2021/01/05 12:32:17;;;;;;;20.08;9.43;;;15.00;99.00;;;;;;4730033;30;20047;-78
2021/01/05 12:34:46;;;;;;;10.93;3.85;;;15.00;99.40;;;;;;4730152;30;20060;-79
2021/01/05 12:37:18;;;;;;;4.18;1.90;;;15.20;99.50;;;;;;4737443;30;20036;-79
2021/01/05 12:39:44;;;;;;;6.95;2.00;;;15.40;99.30;;;;;;4743309;30;20504;-78
2021/01/05 12:42:23;;;;;;;5.63;1.88;;;15.80;99.00;;;;;;4750184;30;20040;-77
2021/01/05 12:44:52;;;;;;;5.85;0.90;;;15.90;98.10;;;;;;4750358;30;20375;-80
2021/01/05 12:47:19;;;;;;;6.18;0.95;;;15.70;98.20;;;;;;4737730;30;20107;-78
2021/01/05 12:49:47;;;;;;;1.17;0.52;;;15.40;98.40;;;;;;4740519;30;20390;-78
2021/01/05 12:52:13;;;;;;;1.83;0.70;;;15.10;98.90;;;;;;4738364;30;20407;-78
2021/01/05 12:54:42;;;;;;;1.42;0.70;;;15.00;98.90;;;;;;4732578;30;20418;-79
2021/01/05 12:57:10;;;;;;;1.52;0.80;;;15.10;99.20;;;;;;4731763;30;20040;-78
2021/01/05 12:59:37;;;;;;;2.33;0.80;;;15.20;99.20;;;;;;4733128;30;20046;-79
2021/01/05 13:02:06;;;;;;;1.95;0.85;;;15.30;99.50;;;;;;4736759;30;20102;-79
2021/01/05 13:04:32;;;;;;;1.25;0.80;;;15.20;99.50;;;;;;4748972;30;20040;-79
2021/01/05 13:06:58;;;;;;;1.60;0.70;;;15.00;98.70;;;;;;4743763;30;20095;-78
2021/01/05 13:09:25;;;;;;;2.47;0.55;;;15.00;99.10;;;;;;4721826;30;20125;-79
2021/01/05 13:11:52;;;;;;;3.67;1.08;;;15.00;98.60;;;;;;4739962;30;20044;-78
2021/01/05 13:14:20;;;;;;;1.83;0.85;;;15.20;98.40;;;;;;4732206;30;20044;-79
2021/01/05 13:16:47;;;;;;;1.33;0.93;;;15.40;98.40;;;;;;4731509;30;20128;-78